createdAt,value
2023-05-21T00:02:14.869Z,8.40
2023-05-21T00:05:07.902Z,8.30
2023-05-21T00:11:54.609Z,8.03
2023-05-21T00:18:18.838Z,7.37
2023-05-21T00:21:53.066Z,8.53
2023-05-21T00:25:08.526Z,7.13
2023-05-21T00:27:56.168Z,7.60
2023-05-21T00:31:17.120Z,7.80
2023-05-21T00:34:04.315Z,7.63
2023-05-21T00:36:53.456Z,8.57
2023-05-21T00:43:16.175Z,11.27
2023-05-21T00:46:28.933Z,6.27
2023-05-21T00:49:58.038Z,7.93
2023-05-21T00:57:01.064Z,9.97
2023-05-21T01:00:15.606Z,6.87
2023-05-21T01:03:45.305Z,7.17
2023-05-21T01:06:42.446Z,6.53
2023-05-21T01:09:47.832Z,8.57
2023-05-21T01:12:52.712Z,6.50
2023-05-21T01:15:44.415Z,6.97
2023-05-21T01:19:09.224Z,7.67
2023-05-21T01:22:53.862Z,9.87
2023-05-21T01:25:45.473Z,9.83
2023-05-21T01:28:46.108Z,8.47
2023-05-21T01:32:29.859Z,10.17
2023-05-21T01:35:32.547Z,6.63
2023-05-21T01:38:42.598Z,6.37
2023-05-21T01:42:11.728Z,8.10
2023-05-21T01:45:19.884Z,8.77
2023-05-21T01:48:15.083Z,9.03
2023-05-21T01:51:44.142Z,8.53
2023-05-21T01:54:43.331Z,8.80
2023-05-21T01:57:41.283Z,8.27
2023-05-21T02:04:26.924Z,9.00
2023-05-21T02:07:37.841Z,6.83
2023-05-21T02:10:29.188Z,9.33
2023-05-21T02:13:26.478Z,7.50
2023-05-21T02:16:17.281Z,8.30
2023-05-21T02:19:13.060Z,7.50
2023-05-21T02:23:00.590Z,8.23
2023-05-21T02:33:22.183Z,7.90
2023-05-21T02:41:16.653Z,8.70
2023-05-21T02:44:45.538Z,8.33
2023-05-21T02:48:07.707Z,8.70
2023-05-21T02:51:19.302Z,7.33
2023-05-21T02:54:26.026Z,5.63
2023-05-21T02:57:33.610Z,7.80
2023-05-21T03:00:40.773Z,7.57
2023-05-21T03:03:31.137Z,6.40
2023-05-21T03:06:18.527Z,8.43
2023-05-21T03:09:06.262Z,6.97
2023-05-21T03:11:53.602Z,8.03
2023-05-21T03:14:44.168Z,7.67
2023-05-21T03:17:32.286Z,8.43
2023-05-21T03:20:19.771Z,8.40
2023-05-21T03:23:16.382Z,7.77
2023-05-21T03:26:17.829Z,6.67
2023-05-21T03:29:07.539Z,7.60
2023-05-21T03:31:55.786Z,7.90
2023-05-21T03:34:43.014Z,7.87
2023-05-21T03:37:30.211Z,8.07
2023-05-21T03:40:17.499Z,6.90
2023-05-21T03:43:04.665Z,7.37
2023-05-21T03:45:51.999Z,8.73
2023-05-21T03:48:40.355Z,7.90
2023-05-21T03:51:27.787Z,6.87
2023-05-21T03:54:14.961Z,8.97
2023-05-21T03:57:02.090Z,7.10
2023-05-21T03:59:49.246Z,6.13
2023-05-21T04:02:48.407Z,7.83
2023-05-21T04:06:32.051Z,5.57
2023-05-21T04:09:19.268Z,7.10
2023-05-21T04:12:07.924Z,6.70
2023-05-21T04:14:55.140Z,10.10
2023-05-21T04:17:42.371Z,8.03
2023-05-21T04:20:29.543Z,7.00
2023-05-21T04:23:28.429Z,7.07
2023-05-21T04:26:20.616Z,7.67
2023-05-21T04:29:21.692Z,6.47
2023-05-21T04:32:12.325Z,7.67
2023-05-21T04:35:05.831Z,9.37
2023-05-21T04:37:55.455Z,4.80
2023-05-21T04:40:43.584Z,9.53
2023-05-21T04:43:35.109Z,5.30
2023-05-21T04:46:31.712Z,4.83
2023-05-21T04:49:23.823Z,6.23
2023-05-21T04:52:11.600Z,5.60
2023-05-21T04:55:01.942Z,6.63
2023-05-21T04:58:03.556Z,6.23
2023-05-21T05:00:52.017Z,6.43
2023-05-21T05:03:39.451Z,4.27
2023-05-21T05:06:26.813Z,7.50
2023-05-21T05:09:14.151Z,5.17
2023-05-21T05:12:04.464Z,6.20
2023-05-21T05:14:51.892Z,7.53
2023-05-21T05:17:39.868Z,7.67
2023-05-21T05:20:27.185Z,5.17
2023-05-21T05:23:20.684Z,4.03
2023-05-21T05:26:08.247Z,4.37
2023-05-21T05:29:22.135Z,5.97
2023-05-21T05:32:12.558Z,4.43
2023-05-21T05:35:02.519Z,5.50
2023-05-21T05:37:49.992Z,4.63
2023-05-21T05:40:37.358Z,6.07
2023-05-21T05:43:26.507Z,3.63
2023-05-21T05:46:13.664Z,5.80
2023-05-21T05:49:00.879Z,4.47
2023-05-21T05:51:48.004Z,3.90
2023-05-21T05:54:35.203Z,3.83
2023-05-21T05:57:22.430Z,4.87
2023-05-21T06:00:10.793Z,4.37
2023-05-21T06:02:58.261Z,4.20
2023-05-21T06:05:45.659Z,4.87
2023-05-21T06:08:38.170Z,4.37
2023-05-21T06:11:25.733Z,3.30
2023-05-21T06:14:12.886Z,3.73
2023-05-21T06:17:00.204Z,4.47
2023-05-21T06:19:47.575Z,7.27
2023-05-21T06:22:35.156Z,5.37
2023-05-21T06:25:25.884Z,5.47
2023-05-21T06:28:14.324Z,4.90
2023-05-21T06:31:07.254Z,4.30
2023-05-21T06:33:57.597Z,6.40
2023-05-21T06:37:00.278Z,5.23
2023-05-21T06:43:17.370Z,3.47
2023-05-21T06:46:04.688Z,5.60
2023-05-21T06:49:17.625Z,3.17
2023-05-21T06:52:20.987Z,3.13
2023-05-21T06:55:25.558Z,4.37
2023-05-21T06:58:20.093Z,4.63
2023-05-21T07:02:05.408Z,4.93
2023-05-21T07:05:00.719Z,4.63
2023-05-21T07:07:52.127Z,4.03
2023-05-21T07:11:18.057Z,3.60
2023-05-21T07:14:57.578Z,4.43
2023-05-21T07:17:55.797Z,3.73
2023-05-21T07:20:42.978Z,5.70
2023-05-21T07:23:30.140Z,3.97
2023-05-21T07:26:17.349Z,5.30
2023-05-21T07:29:04.502Z,3.83
2023-05-21T07:31:51.631Z,4.00
2023-05-21T07:34:38.923Z,6.47
2023-05-21T07:37:27.815Z,3.13
2023-05-21T07:40:15.304Z,7.00
2023-05-21T07:43:04.008Z,4.27
2023-05-21T07:45:51.657Z,2.70
2023-05-21T07:48:59.351Z,4.33
2023-05-21T07:52:06.763Z,4.23
2023-05-21T07:54:57.991Z,2.70
2023-05-21T07:57:45.580Z,2.87
2023-05-21T08:00:50.344Z,4.07
2023-05-21T08:03:37.847Z,3.30
2023-05-21T08:06:25.160Z,5.13
2023-05-21T08:09:12.458Z,3.33
2023-05-21T08:11:59.662Z,2.73
2023-05-21T08:14:47.014Z,7.00
2023-05-21T08:17:34.220Z,4.87
2023-05-21T08:20:22.377Z,5.45
2023-05-21T08:23:09.597Z,3.97
2023-05-21T08:25:56.769Z,3.88
2023-05-21T08:28:46.742Z,3.22
2023-05-21T08:31:33.928Z,6.63
2023-05-21T08:34:21.201Z,2.55
2023-05-21T08:37:10.859Z,4.95
2023-05-21T08:39:58.111Z,12.30
2023-05-21T08:42:47.179Z,2.92
2023-05-21T08:45:38.412Z,3.17
2023-05-21T08:48:27.142Z,6.10
2023-05-21T08:51:14.715Z,3.53
2023-05-21T08:54:03.012Z,4.28
2023-05-21T08:56:50.610Z,3.47
2023-05-21T08:59:42.380Z,4.40
2023-05-21T09:02:32.734Z,2.90
2023-05-21T09:05:20.860Z,4.40
2023-05-21T09:08:18.119Z,4.25
2023-05-21T09:11:05.894Z,4.13
2023-05-21T09:13:54.055Z,3.35
2023-05-21T09:16:41.374Z,3.20
2023-05-21T09:19:32.612Z,2.95
2023-05-21T09:22:23.953Z,3.10
2023-05-21T09:25:12.652Z,3.65
2023-05-21T09:27:59.997Z,7.03
2023-05-21T09:30:54.439Z,3.72
2023-05-21T09:33:51.081Z,8.90
2023-05-21T09:36:38.876Z,3.97
2023-05-21T09:39:30.877Z,5.35
2023-05-21T09:42:21.665Z,3.35
2023-05-21T09:45:12.396Z,3.70
2023-05-21T09:47:59.654Z,3.90
2023-05-21T09:50:46.991Z,2.42
2023-05-21T09:53:34.189Z,4.35
2023-05-21T09:56:25.551Z,5.25
2023-05-21T09:59:12.788Z,2.60
2023-05-21T10:02:02.559Z,5.72
2023-05-21T10:04:51.422Z,2.90
2023-05-21T10:07:41.771Z,4.05
2023-05-21T10:10:30.340Z,3.65
2023-05-21T10:13:21.963Z,3.78
2023-05-21T10:16:09.724Z,3.90
2023-05-21T10:18:58.174Z,3.65
2023-05-21T10:21:46.412Z,3.25
2023-05-21T10:24:35.273Z,2.85
2023-05-21T10:27:23.331Z,2.20
2023-05-21T10:30:11.804Z,3.55
2023-05-21T10:33:01.907Z,4.78
2023-05-21T10:35:53.135Z,3.97
2023-05-21T10:38:43.082Z,2.58
2023-05-21T10:41:38.716Z,3.58
2023-05-21T10:44:30.492Z,3.90
2023-05-21T10:47:29.822Z,2.25
2023-05-21T10:50:45.821Z,3.95
2023-05-21T10:54:00.276Z,3.67
2023-05-21T10:57:20.514Z,3.08
2023-05-21T11:00:09.627Z,5.82
2023-05-21T11:02:58.651Z,3.88
2023-05-21T11:06:09.271Z,2.70
2023-05-21T11:08:56.702Z,2.83
2023-05-21T11:11:58.118Z,4.28
2023-05-21T11:14:58.373Z,2.90
2023-05-21T11:17:48.269Z,3.25
2023-05-21T11:20:35.864Z,3.10
2023-05-21T11:23:23.843Z,2.60
2023-05-21T11:26:11.014Z,2.20
2023-05-21T11:29:11.927Z,4.13
2023-05-21T11:32:03.046Z,2.17
2023-05-21T11:34:50.696Z,4.40
2023-05-21T11:37:40.989Z,3.38
2023-05-21T11:40:33.638Z,4.00
2023-05-21T11:43:20.879Z,3.80
2023-05-21T11:46:14.013Z,3.67
2023-05-21T11:49:02.958Z,2.28
2023-05-21T11:51:50.375Z,3.55
2023-05-21T11:54:51.282Z,3.42
2023-05-21T11:57:41.737Z,4.18
2023-05-21T12:00:29.528Z,3.58
2023-05-21T12:03:16.870Z,4.13
2023-05-21T12:06:08.488Z,3.28
2023-05-21T12:08:58.513Z,3.17
2023-05-21T12:11:46.367Z,2.70
2023-05-21T12:14:33.738Z,3.13
2023-05-21T12:17:25.932Z,3.25
2023-05-21T12:20:17.304Z,3.97
2023-05-21T12:23:04.564Z,2.58
2023-05-21T12:25:53.713Z,4.40
2023-05-21T12:28:41.345Z,3.08
2023-05-21T12:31:30.969Z,2.90
2023-05-21T12:34:42.774Z,2.42
2023-05-21T12:37:35.627Z,4.68
2023-05-21T12:40:35.446Z,3.75
2023-05-21T12:43:22.839Z,2.33
2023-05-21T12:46:17.407Z,2.95
2023-05-21T12:49:04.776Z,3.03
2023-05-21T12:51:52.150Z,3.40
2023-05-21T12:54:41.481Z,2.97
2023-05-21T12:57:36.296Z,4.30
2023-05-21T13:00:24.289Z,4.03
2023-05-21T13:03:12.119Z,4.55
2023-05-21T13:06:01.255Z,3.38
2023-05-21T13:08:48.573Z,2.88
2023-05-21T13:11:35.909Z,2.95
2023-05-21T13:14:23.252Z,2.17
2023-05-21T13:17:11.251Z,4.03
2023-05-21T13:20:21.834Z,2.80
2023-05-21T13:23:11.439Z,3.42
2023-05-21T13:25:59.306Z,3.10
2023-05-21T13:28:46.895Z,3.17
2023-05-21T13:31:34.143Z,3.92
2023-05-21T13:34:21.354Z,2.90
2023-05-21T13:37:08.615Z,5.82
2023-05-21T13:39:55.900Z,3.10
2023-05-21T13:42:44.236Z,4.05
2023-05-21T13:45:31.709Z,2.67
2023-05-21T13:48:18.993Z,3.47
2023-05-21T13:51:06.286Z,3.00
2023-05-21T13:53:55.542Z,2.60
2023-05-21T13:56:47.215Z,4.32
2023-05-21T13:59:34.488Z,2.10
2023-05-21T14:02:21.702Z,2.00
2023-05-21T14:05:12.826Z,2.80
2023-05-21T14:08:00.065Z,4.10
2023-05-21T14:10:48.204Z,4.05
2023-05-21T14:13:35.484Z,4.00
2023-05-21T14:16:24.961Z,1.88
2023-05-21T14:19:12.477Z,5.90
2023-05-21T14:21:59.970Z,3.97
2023-05-21T14:24:47.323Z,2.63
2023-05-21T14:27:34.745Z,3.00
2023-05-21T14:30:22.094Z,3.30
2023-05-21T14:33:09.449Z,3.70
2023-05-21T14:35:56.698Z,3.75
2023-05-21T14:38:43.873Z,4.82
2023-05-21T14:41:31.203Z,2.60
2023-05-21T14:44:18.372Z,4.00
2023-05-21T14:47:05.603Z,3.15
2023-05-21T14:49:52.884Z,4.25
2023-05-21T14:52:42.692Z,3.88
2023-05-21T14:55:30.899Z,2.47
2023-05-21T14:58:18.148Z,4.00
2023-05-21T15:01:05.630Z,3.20
2023-05-21T15:03:53.158Z,2.42
2023-05-21T15:06:41.253Z,3.75
2023-05-21T15:09:28.587Z,8.38
2023-05-21T15:12:15.959Z,3.10
2023-05-21T15:15:03.462Z,2.83
2023-05-21T15:17:50.939Z,2.20
2023-05-21T15:20:38.419Z,2.30
2023-05-21T15:23:25.958Z,4.38
2023-05-21T15:26:13.255Z,3.72
2023-05-21T15:29:00.636Z,4.35
2023-05-21T15:31:47.953Z,2.13
2023-05-21T15:34:35.263Z,5.03
2023-05-21T15:37:22.584Z,3.40
2023-05-21T15:40:10.320Z,2.80
2023-05-21T15:42:58.640Z,2.88
2023-05-21T15:45:45.923Z,2.33
2023-05-21T15:48:33.137Z,3.17
2023-05-21T15:51:20.586Z,3.75
2023-05-21T15:54:07.860Z,2.95
2023-05-21T15:56:56.878Z,3.50
2023-05-21T15:59:44.276Z,5.35
2023-05-21T16:02:31.545Z,3.63
2023-05-21T16:05:18.902Z,3.25
2023-05-21T16:08:06.213Z,2.85
2023-05-21T16:10:53.537Z,3.40
2023-05-21T16:13:41.311Z,2.72
2023-05-21T16:16:29.044Z,3.28
2023-05-21T16:19:16.456Z,2.63
2023-05-21T16:22:03.897Z,2.80
2023-05-21T16:24:51.414Z,3.00
2023-05-21T16:27:46.177Z,4.70
2023-05-21T16:30:33.470Z,5.40
2023-05-21T16:33:20.757Z,3.58
2023-05-21T16:36:08.314Z,4.05
2023-05-21T16:38:55.971Z,6.35
2023-05-21T16:41:43.923Z,6.28
2023-05-21T16:44:32.441Z,7.40
2023-05-21T16:47:20.499Z,5.28
2023-05-21T16:50:32.724Z,2.88
2023-05-21T16:53:20.063Z,5.25
2023-05-21T16:56:10.228Z,3.13
2023-05-21T16:58:57.906Z,5.35
2023-05-21T17:01:45.181Z,2.83
2023-05-21T17:04:32.770Z,6.05
2023-05-21T17:07:20.429Z,3.88
2023-05-21T17:10:08.298Z,4.47
2023-05-21T17:12:56.410Z,5.78
2023-05-21T17:15:44.590Z,4.05
2023-05-21T17:18:31.820Z,3.33
2023-05-21T17:21:22.693Z,4.53
2023-05-21T17:24:14.747Z,5.53
2023-05-21T17:27:02.443Z,3.72
2023-05-21T17:29:56.928Z,3.70
2023-05-21T17:32:44.666Z,4.00
2023-05-21T17:35:32.244Z,4.37
2023-05-21T17:38:19.529Z,3.03
2023-05-21T17:41:13.213Z,6.37
2023-05-21T17:44:00.494Z,3.23
2023-05-21T17:46:49.925Z,4.07
2023-05-21T17:49:38.713Z,3.50
2023-05-21T17:52:27.054Z,4.83
2023-05-21T17:55:14.518Z,4.27
2023-05-21T17:58:01.912Z,3.83
2023-05-21T18:00:49.279Z,4.57
2023-05-21T18:03:39.579Z,4.67
2023-05-21T18:06:27.849Z,4.03
2023-05-21T18:09:15.618Z,2.57
2023-05-21T18:12:03.657Z,2.87
2023-05-21T18:14:53.624Z,4.27
2023-05-21T18:17:40.853Z,5.40
2023-05-21T18:20:29.125Z,3.57
2023-05-21T18:23:16.753Z,4.47
2023-05-21T18:26:05.800Z,4.67
2023-05-21T18:28:53.097Z,4.50
2023-05-21T18:31:40.573Z,3.50
2023-05-21T18:34:27.951Z,6.03
2023-05-21T18:37:17.560Z,5.13
2023-05-21T18:40:06.190Z,2.47
2023-05-21T18:42:53.559Z,3.77
2023-05-21T18:45:41.123Z,4.37
2023-05-21T18:48:28.319Z,3.67
2023-05-21T18:51:15.758Z,4.53
2023-05-21T18:54:03.024Z,4.30
2023-05-21T18:56:50.324Z,4.37
2023-05-21T18:59:38.901Z,5.43
2023-05-21T19:02:27.230Z,6.60
2023-05-21T19:05:14.703Z,6.37
2023-05-21T19:08:02.051Z,4.70
2023-05-21T19:10:49.577Z,5.17
2023-05-21T19:13:37.124Z,3.73
2023-05-21T19:16:24.402Z,3.93
2023-05-21T19:19:11.818Z,4.20
2023-05-21T19:21:59.253Z,3.83
2023-05-21T19:24:47.054Z,6.23
2023-05-21T19:27:34.320Z,4.43
2023-05-21T19:30:21.584Z,4.40
2023-05-21T19:33:08.851Z,5.33
2023-05-21T19:35:56.238Z,5.10
2023-05-21T19:38:53.117Z,6.27
2023-05-21T19:41:45.162Z,4.60
2023-05-21T19:44:32.654Z,4.93
2023-05-21T19:47:20.979Z,4.70
2023-05-21T19:50:12.002Z,4.43
2023-05-21T19:52:59.246Z,5.43
2023-05-21T19:55:46.773Z,6.93
2023-05-21T19:58:33.986Z,3.83
2023-05-21T20:01:21.869Z,4.67
2023-05-21T20:04:09.931Z,4.90
2023-05-21T20:06:58.024Z,4.37
2023-05-21T20:09:45.486Z,4.80
2023-05-21T20:12:33.097Z,4.60
2023-05-21T20:15:20.883Z,5.23
2023-05-21T20:18:08.193Z,4.27
2023-05-21T20:20:56.988Z,4.23
2023-05-21T20:23:45.253Z,5.27
2023-05-21T20:26:40.499Z,5.47
2023-05-21T20:29:28.895Z,5.53
2023-05-21T20:32:16.082Z,5.90
2023-05-21T20:35:33.415Z,9.97
2023-05-21T20:41:08.227Z,6.67
2023-05-21T20:43:55.500Z,6.43
2023-05-21T20:46:42.887Z,7.50
2023-05-21T20:49:33.404Z,5.77
2023-05-21T20:52:21.188Z,6.63
2023-05-21T20:55:20.278Z,6.60
2023-05-21T20:58:07.574Z,7.87
2023-05-21T21:00:55.382Z,6.90
2023-05-21T21:03:48.686Z,7.37
2023-05-21T21:06:43.531Z,6.03
2023-05-21T21:09:32.961Z,7.93
2023-05-21T21:12:26.409Z,6.73
2023-05-21T21:15:14.855Z,5.60
2023-05-21T21:18:02.159Z,5.23
2023-05-21T21:20:50.423Z,5.60
2023-05-21T21:23:37.937Z,6.40
2023-05-21T21:26:25.265Z,7.00
2023-05-21T21:29:12.487Z,7.20
2023-05-21T21:31:59.710Z,8.73
2023-05-21T21:34:46.875Z,6.50
2023-05-21T21:37:36.227Z,6.47
2023-05-21T21:40:23.490Z,7.07
2023-05-21T21:43:10.668Z,6.67
2023-05-21T21:45:57.921Z,8.00
2023-05-21T21:52:19.107Z,7.67
2023-05-21T21:55:11.180Z,7.03
2023-05-21T21:58:03.127Z,10.97
2023-05-21T22:00:50.495Z,8.73
2023-05-21T22:03:52.155Z,8.37
2023-05-21T22:06:39.774Z,7.43
2023-05-21T22:09:27.550Z,6.60
2023-05-21T22:12:14.773Z,9.40
2023-05-21T22:15:05.283Z,8.27
2023-05-21T22:17:53.517Z,6.83
2023-05-21T22:20:45.084Z,6.93
2023-05-21T22:23:32.218Z,7.43
2023-05-21T22:26:22.847Z,7.73
2023-05-21T22:29:10.081Z,9.80
2023-05-21T22:31:57.352Z,7.90
2023-05-21T22:34:44.606Z,7.90
2023-05-21T22:37:31.893Z,8.73
2023-05-21T22:40:19.196Z,8.03
2023-05-21T22:43:06.826Z,8.13
2023-05-21T22:45:54.076Z,6.43
2023-05-21T22:48:42.020Z,8.27
2023-05-21T22:51:34.874Z,10.10
2023-05-21T22:54:22.700Z,8.37
2023-05-21T22:57:09.982Z,10.93
2023-05-21T22:59:57.115Z,9.70
2023-05-21T23:02:45.079Z,8.80
2023-05-21T23:05:32.544Z,11.53
2023-05-21T23:08:20.021Z,8.47
2023-05-21T23:11:16.298Z,9.80
2023-05-21T23:14:03.716Z,8.00
2023-05-21T23:17:07.270Z,9.57
2023-05-21T23:19:54.495Z,8.87
2023-05-21T23:22:56.396Z,8.40
2023-05-21T23:29:56.006Z,10.57
2023-05-21T23:32:43.154Z,10.30
2023-05-21T23:35:30.543Z,9.13
2023-05-21T23:38:21.287Z,8.07
2023-05-21T23:41:34.641Z,10.50
2023-05-21T23:44:26.506Z,11.43
2023-05-21T23:47:13.739Z,9.57
2023-05-21T23:50:03.692Z,9.47
2023-05-21T23:52:51.009Z,7.20
2023-05-21T23:55:38.194Z,8.57
2023-05-21T23:58:28.230Z,9.30
